createdAt,value
2023-10-05T00:00:14.733Z,10.43
2023-10-05T00:03:16.694Z,10.59
2023-10-05T00:06:21.308Z,10.74
2023-10-05T00:09:23.713Z,10.72
2023-10-05T00:12:25.787Z,10.84
2023-10-05T00:15:29.262Z,10.70
2023-10-05T00:18:31.344Z,10.12
2023-10-05T00:21:35.972Z,10.02
2023-10-05T00:24:38.226Z,9.75
2023-10-05T00:27:40.780Z,10.04
2023-10-05T00:30:43.184Z,10.27
2023-10-05T00:33:45.489Z,10.40
2023-10-05T00:36:49.238Z,10.50
2023-10-05T00:39:51.222Z,10.42
2023-10-05T00:42:53.094Z,9.55
2023-10-05T00:45:56.977Z,9.26
2023-10-05T00:48:59.176Z,9.26
2023-10-05T00:52:02.578Z,9.39
2023-10-05T00:55:08.110Z,9.57
2023-10-05T00:58:10.567Z,9.52
2023-10-05T01:01:13.259Z,9.14
2023-10-05T01:04:15.340Z,8.86
2023-10-05T01:07:22.665Z,9.07
2023-10-05T01:10:25.918Z,9.18
2023-10-05T01:13:29.864Z,9.26
2023-10-05T01:16:33.398Z,9.28
2023-10-05T01:19:35.481Z,9.31
2023-10-05T01:22:38.855Z,8.96
2023-10-05T01:25:42.111Z,9.20
2023-10-05T01:28:46.902Z,9.45
2023-10-05T01:31:49.383Z,9.30
2023-10-05T01:34:51.783Z,9.09
2023-10-05T01:37:54.261Z,9.09
2023-10-05T01:40:57.778Z,9.00
2023-10-05T01:44:00.967Z,9.03
2023-10-05T01:47:03.272Z,9.06
2023-10-05T01:50:06.612Z,9.35
2023-10-05T01:53:08.809Z,9.48
2023-10-05T01:56:16.756Z,9.63
2023-10-05T01:59:19.545Z,9.75
2023-10-05T02:02:21.798Z,9.31
2023-10-05T02:05:23.996Z,8.97
2023-10-05T02:08:27.527Z,9.07
2023-10-05T02:11:30.994Z,9.29
2023-10-05T02:14:33.314Z,9.32
2023-10-05T02:17:37.013Z,9.35
2023-10-05T02:20:41.274Z,9.53
2023-10-05T02:23:44.480Z,9.71
2023-10-05T02:26:49.085Z,9.81
2023-10-05T02:29:51.045Z,9.79
2023-10-05T02:32:52.828Z,9.47
2023-10-05T02:35:56.076Z,8.99
2023-10-05T02:38:59.236Z,8.77
2023-10-05T02:42:02.874Z,8.65
2023-10-05T02:45:07.210Z,8.43
2023-10-05T02:48:09.125Z,8.63
2023-10-05T02:51:11.322Z,8.46
2023-10-05T02:54:13.494Z,8.45
2023-10-05T02:57:17.811Z,8.48
2023-10-05T03:00:21.586Z,8.58
2023-10-05T03:03:23.717Z,8.58
2023-10-05T03:06:25.924Z,8.52
2023-10-05T03:09:28.784Z,8.74
2023-10-05T03:12:32.563Z,8.66
2023-10-05T03:15:35.070Z,8.48
2023-10-05T03:18:37.550Z,8.34
2023-10-05T03:21:40.721Z,8.57
2023-10-05T03:24:43.377Z,8.76
2023-10-05T03:27:46.576Z,8.79
2023-10-05T03:30:48.398Z,9.04
2023-10-05T03:33:52.775Z,9.14
2023-10-05T03:36:55.907Z,8.72
2023-10-05T03:39:57.778Z,8.55
2023-10-05T03:43:01.413Z,8.53
2023-10-05T03:46:06.734Z,8.55
2023-10-05T03:49:09.117Z,8.86
2023-10-05T03:52:11.431Z,9.09
2023-10-05T03:55:13.580Z,9.28
2023-10-05T03:58:17.006Z,9.43
2023-10-05T04:01:19.208Z,9.54
2023-10-05T04:04:22.633Z,9.55
2023-10-05T04:07:24.529Z,9.64
2023-10-05T04:10:29.344Z,9.64
2023-10-05T04:13:32.516Z,9.66
2023-10-05T04:16:34.682Z,9.67
2023-10-05T04:19:38.330Z,9.70
2023-10-05T04:22:40.697Z,9.73
2023-10-05T04:25:42.836Z,9.72
2023-10-05T04:28:46.974Z,9.73
2023-10-05T04:31:48.717Z,9.72
2023-10-05T04:34:50.861Z,9.43
2023-10-05T04:37:53.578Z,9.12
2023-10-05T04:40:58.808Z,9.10
2023-10-05T04:44:02.831Z,8.61
2023-10-05T04:47:05.122Z,8.57
2023-10-05T04:50:09.100Z,8.84
2023-10-05T04:53:10.920Z,9.08
2023-10-05T04:56:12.843Z,9.10
2023-10-05T04:59:16.117Z,9.02
2023-10-05T05:02:19.289Z,8.86
2023-10-05T05:05:21.427Z,9.03
2023-10-05T05:08:23.361Z,8.72
2023-10-05T05:11:25.478Z,8.74
2023-10-05T05:14:28.757Z,8.94
2023-10-05T05:17:31.094Z,9.08
2023-10-05T05:20:34.877Z,9.12
2023-10-05T05:23:37.084Z,8.92
2023-10-05T05:26:39.482Z,8.59
2023-10-05T05:29:43.381Z,8.24
2023-10-05T05:32:45.945Z,8.09
2023-10-05T05:35:50.007Z,8.21
2023-10-05T05:38:52.222Z,8.52
2023-10-05T05:41:54.149Z,8.76
2023-10-05T05:44:57.491Z,8.76
2023-10-05T05:47:59.345Z,8.86
2023-10-05T05:51:01.478Z,9.03
2023-10-05T05:54:03.922Z,9.19
2023-10-05T05:57:06.117Z,9.30
2023-10-05T06:00:10.912Z,9.40
2023-10-05T06:03:12.875Z,9.38
2023-10-05T06:06:15.085Z,9.37
2023-10-05T06:09:17.373Z,9.24
2023-10-05T06:12:19.174Z,9.28
2023-10-05T06:15:23.122Z,9.35
2023-10-05T06:18:25.438Z,9.38
2023-10-05T06:21:27.812Z,9.35
2023-10-05T06:24:31.024Z,9.43
2023-10-05T06:27:33.497Z,9.47
2023-10-05T06:30:37.654Z,9.52
2023-10-05T06:33:40.014Z,9.52
2023-10-05T06:36:42.556Z,9.40
2023-10-05T06:39:44.325Z,9.50
2023-10-05T06:42:47.991Z,9.56
2023-10-05T06:45:51.437Z,9.56
2023-10-05T06:48:53.986Z,9.66
2023-10-05T06:51:55.785Z,9.76
2023-10-05T06:54:57.888Z,9.85
2023-10-05T06:58:00.568Z,9.90
2023-10-05T07:01:03.952Z,10.02
2023-10-05T07:04:05.902Z,10.09
2023-10-05T07:07:07.838Z,10.12
2023-10-05T07:10:15.445Z,10.16
2023-10-05T07:13:17.351Z,10.15
2023-10-05T07:16:20.774Z,10.16
2023-10-05T07:19:23.942Z,10.32
2023-10-05T07:22:26.381Z,10.50
2023-10-05T07:25:28.670Z,10.62
2023-10-05T07:28:31.572Z,10.68
2023-10-05T07:31:35.249Z,10.73
2023-10-05T07:34:39.604Z,10.82
2023-10-05T07:37:41.647Z,10.89
2023-10-05T07:40:43.651Z,10.94
2023-10-05T07:43:51.191Z,10.94
2023-10-05T07:47:01.869Z,10.99
2023-10-05T07:50:04.483Z,11.01
2023-10-05T07:53:06.999Z,11.02
2023-10-05T07:56:10.468Z,11.25
2023-10-05T07:59:12.644Z,11.29
2023-10-05T08:02:16.110Z,11.41
2023-10-05T08:05:18.722Z,11.41
2023-10-05T08:08:22.696Z,11.50
2023-10-05T08:11:24.511Z,11.59
2023-10-05T08:14:27.340Z,11.59
2023-10-05T08:17:33.560Z,11.59
2023-10-05T08:20:35.807Z,11.66
2023-10-05T08:23:37.733Z,11.72
2023-10-05T08:26:42.103Z,11.75
2023-10-05T08:29:44.419Z,11.83
2023-10-05T08:32:47.956Z,11.89
2023-10-05T08:35:50.309Z,11.97
2023-10-05T08:38:52.374Z,12.11
2023-10-05T08:41:54.960Z,12.24
2023-10-05T08:44:57.215Z,12.31
2023-10-05T08:48:00.793Z,12.36
2023-10-05T08:51:04.625Z,12.45
2023-10-05T08:54:08.340Z,12.51
2023-10-05T08:57:12.095Z,12.67
2023-10-05T09:00:15.223Z,12.82
2023-10-05T09:03:18.381Z,12.87
2023-10-05T09:06:20.338Z,13.00
2023-10-05T09:09:32.272Z,13.17
2023-10-05T09:12:34.440Z,13.17
2023-10-05T09:15:50.329Z,13.36
2023-10-05T09:18:54.023Z,13.42
2023-10-05T09:21:56.746Z,13.43
2023-10-05T09:24:58.928Z,13.47
2023-10-05T09:28:02.797Z,13.60
2023-10-05T09:31:04.718Z,13.64
2023-10-05T09:34:08.164Z,13.69
2023-10-05T09:37:12.161Z,13.86
2023-10-05T09:40:14.566Z,13.98
2023-10-05T09:43:17.256Z,14.12
2023-10-05T09:46:22.181Z,14.29
2023-10-05T09:49:26.202Z,14.38
2023-10-05T09:52:28.746Z,14.67
2023-10-05T09:55:31.640Z,14.82
2023-10-05T09:58:35.040Z,14.83
2023-10-05T10:01:37.063Z,14.92
2023-10-05T10:04:41.594Z,14.83
2023-10-05T10:07:45.355Z,14.74
2023-10-05T10:10:52.100Z,14.61
2023-10-05T10:13:55.067Z,14.64
2023-10-05T10:16:58.719Z,14.66
2023-10-05T10:20:15.212Z,14.67
2023-10-05T10:23:21.164Z,14.83
2023-10-05T10:26:22.943Z,15.01
2023-10-05T10:29:40.935Z,15.07
2023-10-05T10:32:43.169Z,15.24
2023-10-05T10:35:48.595Z,15.47
2023-10-05T10:38:52.220Z,15.50
2023-10-05T10:41:58.219Z,15.45
2023-10-05T10:45:00.426Z,15.51
2023-10-05T10:48:02.309Z,15.51
2023-10-05T10:51:05.910Z,15.63
2023-10-05T10:54:10.931Z,15.49
2023-10-05T10:57:13.001Z,15.50
2023-10-05T11:00:16.049Z,15.55
2023-10-05T11:03:18.295Z,15.61
2023-10-05T11:06:21.702Z,15.64
2023-10-05T11:09:25.849Z,15.65
2023-10-05T11:12:28.831Z,15.73
2023-10-05T11:15:32.361Z,15.81
2023-10-05T11:18:35.261Z,15.87
2023-10-05T11:21:38.922Z,16.01
2023-10-05T11:25:03.686Z,16.08
2023-10-05T11:28:07.054Z,16.06
2023-10-05T11:31:17.882Z,15.94
2023-10-05T11:35:16.331Z,15.86
2023-10-05T11:37:55.070Z,15.83
2023-10-05T11:40:57.595Z,15.92
2023-10-05T11:44:00.977Z,15.98
2023-10-05T11:47:04.194Z,16.02
2023-10-05T11:50:08.434Z,16.11
2023-10-05T11:53:12.913Z,16.23
2023-10-05T11:56:16.312Z,16.16
2023-10-05T11:59:27.012Z,16.08
2023-10-05T12:02:29.048Z,16.10
2023-10-05T12:05:33.084Z,16.16
2023-10-05T12:08:41.783Z,16.16
2023-10-05T12:11:43.879Z,16.26
2023-10-05T12:14:47.013Z,16.34
2023-10-05T12:17:49.083Z,16.32
2023-10-05T12:20:51.436Z,16.40
2023-10-05T12:23:56.645Z,16.42
2023-10-05T12:26:59.713Z,16.45
2023-10-05T12:30:04.387Z,16.51
2023-10-05T12:33:06.636Z,16.64
2023-10-05T12:36:09.326Z,16.69
2023-10-05T12:39:17.535Z,16.73
2023-10-05T12:42:22.127Z,16.69
2023-10-05T12:45:24.533Z,16.76
2023-10-05T12:48:26.369Z,16.80
2023-10-05T12:51:29.746Z,16.72
2023-10-05T12:54:33.301Z,16.58
2023-10-05T12:57:37.126Z,16.45
2023-10-05T13:00:39.300Z,16.35
2023-10-05T13:03:47.759Z,16.40
2023-10-05T13:06:49.997Z,16.39
2023-10-05T13:09:53.306Z,16.41
2023-10-05T13:12:55.659Z,16.38
2023-10-05T13:15:58.665Z,16.33
2023-10-05T13:19:02.185Z,16.29
2023-10-05T13:22:04.017Z,16.38
2023-10-05T13:25:08.434Z,16.32
2023-10-05T13:28:11.378Z,16.47
2023-10-05T13:31:21.282Z,16.48
2023-10-05T13:34:23.485Z,16.44
2023-10-05T13:37:26.487Z,16.34
2023-10-05T13:40:29.870Z,16.21
2023-10-05T13:43:33.215Z,16.23
2023-10-05T13:46:35.353Z,16.22
2023-10-05T13:49:37.857Z,16.17
2023-10-05T13:52:40.273Z,16.14
2023-10-05T13:55:43.683Z,16.07
2023-10-05T13:58:46.905Z,15.92
2023-10-05T14:01:50.435Z,16.00
2023-10-05T14:04:53.728Z,15.89
2023-10-05T14:07:55.633Z,15.90
2023-10-05T14:10:58.812Z,15.87
2023-10-05T14:14:02.719Z,15.96
2023-10-05T14:17:05.729Z,15.87
2023-10-05T14:20:09.681Z,15.85
2023-10-05T14:23:11.984Z,15.83
2023-10-05T14:26:15.560Z,15.72
2023-10-05T14:29:17.761Z,15.66
2023-10-05T14:32:20.186Z,15.54
2023-10-05T14:35:22.069Z,15.64
2023-10-05T14:38:24.868Z,15.56
2023-10-05T14:41:28.136Z,15.66
2023-10-05T14:44:30.863Z,15.55
2023-10-05T14:47:33.272Z,15.51
2023-10-05T14:50:38.187Z,15.54
2023-10-05T14:53:40.327Z,15.51
2023-10-05T14:56:47.469Z,15.55
2023-10-05T14:59:50.020Z,15.48
2023-10-05T15:02:52.367Z,15.42
2023-10-05T15:05:54.473Z,15.36
2023-10-05T15:08:56.607Z,15.29
2023-10-05T15:12:00.147Z,15.21
2023-10-05T15:15:02.780Z,15.32
2023-10-05T15:18:06.682Z,15.35
2023-10-05T15:21:08.642Z,15.27
2023-10-05T15:24:11.173Z,15.33
2023-10-05T15:27:14.428Z,15.32
2023-10-05T15:30:17.406Z,15.29
2023-10-05T15:33:19.267Z,15.30
2023-10-05T15:36:21.352Z,15.18
2023-10-05T15:39:23.306Z,15.16
2023-10-05T15:42:26.505Z,15.07
2023-10-05T15:45:29.281Z,15.11
2023-10-05T15:48:31.302Z,15.04
2023-10-05T15:51:33.355Z,15.00
2023-10-05T15:54:35.251Z,15.00
2023-10-05T15:57:39.232Z,14.99
2023-10-05T16:00:41.430Z,14.89
2023-10-05T16:03:43.768Z,14.84
2023-10-05T16:06:47.722Z,14.95
2023-10-05T16:09:49.583Z,14.96
2023-10-05T16:12:53.099Z,14.93
2023-10-05T16:15:57.422Z,14.89
2023-10-05T16:18:59.721Z,14.82
2023-10-05T16:22:01.541Z,14.71
2023-10-05T16:25:04.164Z,14.71
2023-10-05T16:28:07.754Z,14.72
2023-10-05T16:31:10.577Z,14.72
2023-10-05T16:34:12.965Z,14.79
2023-10-05T16:37:16.481Z,14.82
2023-10-05T16:40:19.253Z,14.81
2023-10-05T16:43:22.488Z,14.75
2023-10-05T16:46:24.535Z,14.75
2023-10-05T16:49:30.648Z,14.70
2023-10-05T16:52:32.802Z,14.76
2023-10-05T16:55:35.311Z,14.75
2023-10-05T16:58:41.933Z,14.77
2023-10-05T17:01:45.308Z,14.80
2023-10-05T17:04:50.637Z,14.84
2023-10-05T17:07:56.128Z,14.85
2023-10-05T17:10:59.283Z,14.82
2023-10-05T17:14:06.204Z,14.88
2023-10-05T17:17:09.760Z,14.82
2023-10-05T17:20:16.424Z,14.72
2023-10-05T17:23:21.244Z,14.70
2023-10-05T17:26:24.777Z,14.71
2023-10-05T17:29:30.213Z,14.70
2023-10-05T17:32:34.135Z,14.69
2023-10-05T17:35:42.294Z,14.69
2023-10-05T17:38:48.713Z,14.63
2023-10-05T17:41:53.505Z,14.43
2023-10-05T17:45:03.768Z,14.25
2023-10-05T17:48:08.294Z,14.32
2023-10-05T17:51:12.686Z,14.42
2023-10-05T17:54:17.572Z,14.39
2023-10-05T17:57:23.173Z,14.28
2023-10-05T18:00:30.176Z,14.25
2023-10-05T18:03:34.138Z,14.11
2023-10-05T18:06:38.807Z,14.09
2023-10-05T18:09:42.681Z,14.06
2023-10-05T18:12:47.694Z,14.06
2023-10-05T18:15:55.326Z,13.99
2023-10-05T18:19:02.001Z,14.07
2023-10-05T18:22:08.278Z,14.10
2023-10-05T18:25:14.835Z,14.04
2023-10-05T18:28:21.515Z,14.06
2023-10-05T18:31:31.445Z,14.01
2023-10-05T18:34:37.709Z,14.09
2023-10-05T18:37:42.395Z,14.16
2023-10-05T18:40:46.994Z,14.17
2023-10-05T18:43:52.067Z,14.21
2023-10-05T18:47:03.430Z,14.28
2023-10-05T18:50:11.135Z,14.33
2023-10-05T18:53:14.914Z,14.33
2023-10-05T18:56:21.812Z,14.28
2023-10-05T18:59:27.723Z,14.31
2023-10-05T19:02:38.046Z,14.31
2023-10-05T19:05:43.785Z,14.17
2023-10-05T19:08:50.528Z,14.19
2023-10-05T19:11:57.033Z,14.18
2023-10-05T19:15:04.944Z,14.11
2023-10-05T19:18:12.904Z,14.10
2023-10-05T19:21:18.557Z,14.04
2023-10-05T19:24:23.462Z,13.98
2023-10-05T19:27:29.305Z,13.98
2023-10-05T19:30:35.861Z,14.03
2023-10-05T19:33:44.471Z,13.97
2023-10-05T19:36:51.162Z,13.56
2023-10-05T19:39:55.080Z,13.07
2023-10-05T19:42:59.089Z,12.90
2023-10-05T19:46:04.818Z,13.04
2023-10-05T19:49:11.550Z,12.92
2023-10-05T19:52:16.715Z,12.57
2023-10-05T19:55:21.408Z,12.44
2023-10-05T19:58:26.512Z,12.47
2023-10-05T20:01:31.734Z,12.52
2023-10-05T20:04:39.856Z,12.51
2023-10-05T20:07:43.946Z,12.47
2023-10-05T20:10:48.942Z,12.56
2023-10-05T20:13:53.000Z,12.67
2023-10-05T20:16:58.972Z,12.71
2023-10-05T20:20:04.413Z,12.76
2023-10-05T20:23:08.127Z,12.69
2023-10-05T20:26:12.876Z,12.67
2023-10-05T20:29:17.670Z,12.61
2023-10-05T20:32:21.349Z,12.54
2023-10-05T20:35:25.059Z,12.47
2023-10-05T20:38:28.341Z,12.51
2023-10-05T20:41:33.470Z,12.45
2023-10-05T20:44:36.491Z,12.53
2023-10-05T20:47:39.443Z,12.51
2023-10-05T20:50:44.780Z,12.51
2023-10-05T20:53:46.754Z,12.50
2023-10-05T20:56:48.502Z,12.51
2023-10-05T20:59:51.617Z,12.58
2023-10-05T21:02:53.698Z,12.53
2023-10-05T21:06:01.146Z,12.48
2023-10-05T21:09:04.643Z,12.40
2023-10-05T21:12:07.451Z,12.40
2023-10-05T21:15:10.584Z,12.41
2023-10-05T21:18:13.731Z,12.42
2023-10-05T21:21:17.063Z,12.35
2023-10-05T21:24:19.649Z,12.24
2023-10-05T21:27:23.838Z,12.21
2023-10-05T21:30:25.745Z,12.15
2023-10-05T21:33:27.950Z,12.03
2023-10-05T21:36:32.710Z,11.96
2023-10-05T21:39:34.942Z,11.96
2023-10-05T21:42:37.716Z,12.01
2023-10-05T21:45:41.493Z,12.03
2023-10-05T21:48:43.289Z,12.14
2023-10-05T21:51:48.699Z,12.26
2023-10-05T21:54:52.090Z,12.48
2023-10-05T21:57:54.042Z,12.63
2023-10-05T22:00:56.623Z,12.75
2023-10-05T22:04:00.018Z,12.86
2023-10-05T22:07:03.201Z,12.97
2023-10-05T22:10:06.089Z,13.03
2023-10-05T22:13:08.393Z,13.09
2023-10-05T22:16:12.351Z,12.98
2023-10-05T22:19:14.443Z,12.93
2023-10-05T22:22:17.956Z,12.89
2023-10-05T22:25:23.409Z,12.93
2023-10-05T22:28:25.129Z,13.02
2023-10-05T22:31:27.487Z,13.04
2023-10-05T22:34:29.424Z,13.10
2023-10-05T22:37:32.738Z,13.12
2023-10-05T22:40:34.879Z,13.14
2023-10-05T22:43:38.319Z,13.18
2023-10-05T22:46:40.180Z,13.17
2023-10-05T22:49:42.445Z,13.19
2023-10-05T22:52:46.849Z,13.19
2023-10-05T22:55:49.074Z,13.21
2023-10-05T22:58:52.325Z,13.24
2023-10-05T23:01:54.454Z,13.14
2023-10-05T23:04:58.008Z,13.13
2023-10-05T23:08:01.657Z,13.09
2023-10-05T23:11:03.973Z,13.04
2023-10-05T23:14:08.804Z,13.02
2023-10-05T23:17:11.001Z,13.03
2023-10-05T23:20:13.430Z,13.05
2023-10-05T23:23:16.833Z,13.00
2023-10-05T23:26:20.659Z,12.96
2023-10-05T23:29:22.821Z,12.81
2023-10-05T23:32:27.630Z,12.79
2023-10-05T23:35:29.448Z,12.73
2023-10-05T23:38:33.149Z,12.46
2023-10-05T23:41:35.464Z,11.82
2023-10-05T23:44:40.608Z,11.27
2023-10-05T23:47:42.770Z,10.95
2023-10-05T23:50:44.677Z,10.89
2023-10-05T23:53:48.881Z,10.61
2023-10-05T23:56:52.249Z,10.35
2023-10-05T23:59:54.252Z,10.10
